Time;durP1;ratioP1;P1;durP2;ratioP2;P2;SDS_P1;SDS_P2;PMS_P1;PMS_P2;Temp;Humidity;BMP_temperature;BMP_pressure;BME280_temperature;BME280_humidity;BME280_pressure;Samples;Min_cycle;Max_cycle;Signal;HPM_P1;HPM_P2
2023/06/10 00:01:04;;;;;;;12.70;8.77;;;17.60;97.60;;;;;;5032444;28;20414;-70
2023/06/10 00:03:51;;;;;;;8.93;8.03;;;17.50;97.00;;;;;;5033311;28;20807;-72
2023/06/10 00:06:37;;;;;;;10.47;7.50;;;17.60;97.20;;;;;;5032232;28;20429;-71
2023/06/10 00:09:22;;;;;;;11.90;8.70;;;17.60;96.40;;;;;;5033156;28;20498;-70
2023/06/10 00:12:10;;;;;;;14.00;8.90;;;17.50;96.50;;;;;;5035355;28;20591;-71
2023/06/10 00:14:56;;;;;;;9.30;7.93;;;17.40;97.00;;;;;;5031053;28;20880;-70
2023/06/10 00:17:42;;;;;;;8.20;7.40;;;17.40;97.50;;;;;;5034875;28;20439;-71
2023/06/10 00:20:27;;;;;;;8.87;7.93;;;17.50;97.30;;;;;;5034769;28;20985;-70
2023/06/10 00:23:13;;;;;;;8.10;7.30;;;17.70;97.20;;;;;;5034969;28;20595;-71
2023/06/10 00:25:59;;;;;;;8.83;7.30;;;17.70;96.90;;;;;;5032722;28;20453;-71
2023/06/10 00:28:46;;;;;;;8.20;7.13;;;17.80;96.90;;;;;;5033648;28;20498;-69
2023/06/10 00:31:31;;;;;;;12.10;7.70;;;17.80;96.40;;;;;;5032189;28;20464;-71
2023/06/10 00:34:17;;;;;;;8.10;6.90;;;17.80;96.20;;;;;;5031846;28;20983;-71
2023/06/10 00:37:03;;;;;;;8.70;7.70;;;17.90;95.70;;;;;;5031753;28;20561;-71
2023/06/10 00:39:48;;;;;;;9.53;7.10;;;17.80;95.60;;;;;;5031494;28;20587;-70
2023/06/10 00:42:34;;;;;;;8.13;7.33;;;17.80;95.70;;;;;;5033361;28;20603;-70
2023/06/10 00:45:21;;;;;;;8.30;7.50;;;17.80;95.60;;;;;;5029927;28;20460;-69
2023/06/10 00:48:07;;;;;;;8.90;8.07;;;17.80;95.10;;;;;;5032380;28;20501;-69
2023/06/10 00:50:52;;;;;;;7.37;6.67;;;17.80;94.80;;;;;;5031276;28;20591;-72
2023/06/10 00:53:39;;;;;;;9.47;8.30;;;17.80;94.40;;;;;;5027457;28;20580;-70
2023/06/10 00:56:26;;;;;;;11.50;8.20;;;17.90;94.20;;;;;;5030068;28;20603;-71
2023/06/10 00:59:11;;;;;;;8.23;7.40;;;17.90;94.20;;;;;;5028961;28;20480;-72
2023/06/10 01:02:00;;;;;;;9.50;7.80;;;18.00;94.10;;;;;;5029641;28;20482;-72
2023/06/10 01:04:47;;;;;;;8.73;7.83;;;18.00;94.00;;;;;;5031643;28;20646;-70
2023/06/10 01:07:38;;;;;;;8.37;7.57;;;18.00;94.00;;;;;;5033165;28;20437;-70
2023/06/10 01:10:33;;;;;;;9.93;7.50;;;17.90;94.40;;;;;;5033643;28;20448;-71
2023/06/10 01:13:22;;;;;;;10.67;8.47;;;17.90;94.60;;;;;;5033025;28;20465;-72
2023/06/10 01:16:09;;;;;;;10.07;8.30;;;17.90;94.60;;;;;;5030875;28;20523;-71
2023/06/10 01:18:56;;;;;;;9.87;8.63;;;17.80;95.10;;;;;;5032050;28;20452;-70
2023/06/10 01:21:48;;;;;;;9.20;8.27;;;17.80;95.30;;;;;;5032212;28;20475;-71
2023/06/10 01:24:34;;;;;;;12.87;8.57;;;18.00;95.60;;;;;;5029670;28;20503;-69
2023/06/10 01:27:22;;;;;;;11.70;8.00;;;18.00;94.90;;;;;;5027561;28;20427;-71
2023/06/10 01:30:15;;;;;;;8.90;7.97;;;18.00;94.80;;;;;;5032043;28;20448;-72
2023/06/10 01:33:02;;;;;;;10.43;8.40;;;18.00;94.90;;;;;;5029275;28;20488;-71
2023/06/10 01:35:49;;;;;;;11.53;8.50;;;18.00;95.40;;;;;;5036426;28;20460;-69
2023/06/10 01:38:41;;;;;;;10.20;8.63;;;17.80;95.10;;;;;;5029969;28;20443;-72
2023/06/10 01:41:27;;;;;;;10.33;8.60;;;17.80;95.80;;;;;;5030200;28;20566;-72
2023/06/10 01:44:13;;;;;;;10.10;8.47;;;17.80;95.80;;;;;;5029617;28;20992;-69
2023/06/10 01:46:58;;;;;;;10.00;8.90;;;17.70;96.00;;;;;;5032891;28;20483;-72
2023/06/10 01:49:44;;;;;;;9.93;8.97;;;17.60;96.10;;;;;;5029203;28;20522;-70
2023/06/10 01:52:29;;;;;;;9.50;8.60;;;17.60;96.80;;;;;;5031243;28;20495;-71
2023/06/10 01:55:16;;;;;;;9.03;8.13;;;17.50;96.60;;;;;;5027836;28;20456;-70
2023/06/10 01:58:02;;;;;;;8.60;7.73;;;17.50;96.80;;;;;;5029214;28;20892;-69
2023/06/10 02:00:48;;;;;;;10.80;8.50;;;17.50;96.60;;;;;;5031331;28;20583;-72
2023/06/10 02:03:33;;;;;;;9.50;7.70;;;17.50;96.60;;;;;;5027594;28;20482;-72
2023/06/10 02:06:19;;;;;;;10.37;8.53;;;17.40;97.10;;;;;;5028502;28;20455;-71
2023/06/10 02:09:05;;;;;;;9.37;8.37;;;17.30;96.80;;;;;;5028048;28;20557;-71
2023/06/10 02:11:52;;;;;;;12.30;8.80;;;17.20;97.10;;;;;;5028505;28;20452;-71
2023/06/10 02:14:37;;;;;;;9.67;8.33;;;17.10;97.30;;;;;;5027700;28;20455;-72
2023/06/10 02:17:23;;;;;;;10.30;8.43;;;17.00;97.50;;;;;;5029785;28;20517;-70
2023/06/10 02:20:10;;;;;;;13.70;8.97;;;17.00;97.40;;;;;;5035218;28;20525;-71
2023/06/10 02:22:55;;;;;;;12.33;9.53;;;16.90;97.70;;;;;;5029530;28;20972;-71
2023/06/10 02:25:41;;;;;;;10.03;9.03;;;16.90;97.80;;;;;;5029393;28;20427;-71
2023/06/10 02:28:28;;;;;;;10.40;9.30;;;16.90;97.80;;;;;;5027695;28;20494;-70
2023/06/10 02:31:14;;;;;;;11.70;9.10;;;16.90;97.80;;;;;;5029405;28;20448;-72
2023/06/10 02:34:00;;;;;;;11.37;9.10;;;16.80;97.80;;;;;;5027489;28;20464;-71
2023/06/10 02:36:45;;;;;;;9.80;8.90;;;16.80;97.80;;;;;;5030100;28;20446;-69
2023/06/10 02:39:31;;;;;;;15.40;8.93;;;16.70;97.70;;;;;;5027945;28;20444;-69
2023/06/10 02:42:16;;;;;;;11.43;9.27;;;16.70;98.10;;;;;;5027379;28;20525;-72
2023/06/10 02:45:03;;;;;;;9.93;8.70;;;16.70;97.80;;;;;;5028183;28;20659;-71
2023/06/10 02:47:49;;;;;;;9.53;8.63;;;16.70;98.10;;;;;;5030718;28;20415;-72
2023/06/10 02:50:34;;;;;;;10.40;9.40;;;16.60;98.00;;;;;;5029014;28;21019;-71
2023/06/10 02:53:20;;;;;;;10.80;8.77;;;16.60;98.00;;;;;;5032510;28;22618;-71
2023/06/10 02:56:05;;;;;;;15.20;8.47;;;16.50;98.10;;;;;;5031834;28;20550;-71
2023/06/10 02:58:51;;;;;;;10.20;9.10;;;16.30;98.30;;;;;;5030702;28;20744;-72
2023/06/10 03:01:38;;;;;;;9.47;7.97;;;16.20;99.10;;;;;;5032989;28;20464;-70
2023/06/10 03:04:25;;;;;;;9.63;7.90;;;16.30;99.00;;;;;;5032548;28;20462;-72
2023/06/10 03:07:10;;;;;;;16.80;8.83;;;16.20;99.40;;;;;;5032132;28;20488;-68
2023/06/10 03:09:56;;;;;;;9.70;8.67;;;16.20;99.30;;;;;;5031294;28;20465;-71
2023/06/10 03:12:41;;;;;;;10.57;9.00;;;16.20;99.40;;;;;;5032551;28;20476;-72
2023/06/10 03:15:28;;;;;;;10.40;9.40;;;16.20;99.60;;;;;;5030088;28;20422;-70
2023/06/10 03:18:15;;;;;;;9.80;8.80;;;16.20;99.70;;;;;;5031934;28;20474;-72
2023/06/10 03:21:00;;;;;;;11.40;9.17;;;16.10;99.90;;;;;;5033027;28;20459;-72
2023/06/10 03:23:46;;;;;;;11.97;8.90;;;16.10;99.90;;;;;;5031944;28;23391;-71
2023/06/10 03:26:32;;;;;;;11.80;9.00;;;16.20;99.90;;;;;;5034237;28;20972;-69
2023/06/10 03:29:17;;;;;;;10.53;9.43;;;16.10;99.90;;;;;;5030961;28;20569;-71
2023/06/10 03:32:03;;;;;;;9.17;8.30;;;16.00;99.90;;;;;;5030710;28;20479;-72
2023/06/10 03:34:51;;;;;;;15.27;8.70;;;16.00;99.90;;;;;;5039068;28;20444;-71
2023/06/10 03:37:36;;;;;;;14.30;8.63;;;16.00;99.90;;;;;;5032324;28;20492;-71
2023/06/10 03:40:21;;;;;;;12.13;9.40;;;16.10;99.90;;;;;;5032934;28;20542;-71
2023/06/10 03:43:07;;;;;;;12.20;9.87;;;16.00;99.90;;;;;;5033464;28;20468;-69
2023/06/10 03:45:53;;;;;;;12.83;8.80;;;15.90;99.90;;;;;;5033409;28;21234;-71
2023/06/10 03:48:39;;;;;;;10.03;8.43;;;16.00;99.90;;;;;;5034418;28;20485;-71
2023/06/10 03:51:25;;;;;;;13.33;9.90;;;16.10;99.90;;;;;;5036131;28;20939;-71
2023/06/10 03:54:11;;;;;;;17.00;8.67;;;16.10;99.90;;;;;;5032542;28;20527;-71
2023/06/10 03:56:57;;;;;;;8.83;8.00;;;16.10;99.90;;;;;;5032370;28;20476;-70
2023/06/10 03:59:42;;;;;;;10.40;9.40;;;16.10;99.90;;;;;;5031479;28;20870;-70
2023/06/10 04:02:28;;;;;;;11.47;9.00;;;16.10;99.90;;;;;;5032510;28;20810;-69
2023/06/10 04:05:13;;;;;;;10.40;8.73;;;16.20;99.90;;;;;;5029114;28;20472;-70
2023/06/10 04:08:01;;;;;;;19.73;8.47;;;16.10;99.90;;;;;;5033260;28;20459;-72
2023/06/10 04:10:46;;;;;;;12.30;8.97;;;16.20;99.90;;;;;;5033852;28;20453;-69
2023/06/10 04:13:32;;;;;;;10.60;8.43;;;16.10;99.90;;;;;;5034308;28;20458;-71
2023/06/10 04:16:17;;;;;;;11.00;8.57;;;16.30;99.90;;;;;;5032474;28;20549;-71
2023/06/10 04:19:03;;;;;;;10.30;9.13;;;16.30;99.90;;;;;;5031267;28;20424;-72
2023/06/10 04:21:48;;;;;;;8.93;8.03;;;16.40;99.90;;;;;;5030857;28;20996;-72
2023/06/10 04:24:35;;;;;;;10.93;8.90;;;16.20;99.90;;;;;;5029274;28;20448;-70
2023/06/10 04:27:21;;;;;;;27.90;9.10;;;16.30;99.90;;;;;;5034104;28;20939;-72
2023/06/10 04:30:08;;;;;;;14.47;8.93;;;16.30;99.90;;;;;;5028918;28;22848;-72
2023/06/10 04:32:54;;;;;;;13.00;9.30;;;16.30;99.90;;;;;;5030564;28;20503;-69
2023/06/10 04:35:39;;;;;;;14.90;8.63;;;16.40;99.90;;;;;;5035419;28;20491;-71
2023/06/10 04:38:26;;;;;;;17.13;8.90;;;16.40;99.90;;;;;;5030611;28;21046;-70
2023/06/10 04:41:13;;;;;;;12.67;8.60;;;16.50;99.90;;;;;;5031593;28;20448;-71
2023/06/10 04:43:59;;;;;;;12.60;9.67;;;16.70;99.90;;;;;;5028851;28;20964;-71
2023/06/10 04:46:44;;;;;;;11.90;9.20;;;16.60;99.90;;;;;;5031971;28;20507;-71
2023/06/10 04:49:31;;;;;;;9.90;8.97;;;16.60;99.90;;;;;;5031053;28;20452;-72
2023/06/10 04:52:16;;;;;;;10.53;9.50;;;16.70;99.90;;;;;;5032200;28;20782;-69
2023/06/10 04:55:02;;;;;;;10.17;8.87;;;16.80;99.90;;;;;;5030057;28;20452;-71
2023/06/10 04:57:50;;;;;;;11.63;8.70;;;17.00;99.90;;;;;;5033636;28;20487;-72
2023/06/10 05:00:35;;;;;;;10.57;8.33;;;17.00;99.90;;;;;;5036081;28;20470;-71
2023/06/10 05:03:20;;;;;;;10.17;9.10;;;17.20;99.90;;;;;;5032310;28;20471;-71
2023/06/10 05:06:06;;;;;;;9.50;8.50;;;17.30;99.90;;;;;;5032071;28;20470;-71
2023/06/10 05:08:52;;;;;;;11.00;8.63;;;17.40;99.90;;;;;;5031046;28;20435;-72
2023/06/10 05:11:37;;;;;;;11.53;8.37;;;17.50;99.90;;;;;;5030300;28;20493;-72
2023/06/10 05:14:24;;;;;;;9.40;8.50;;;17.60;99.90;;;;;;5030664;28;20463;-71
2023/06/10 05:17:10;;;;;;;9.70;8.60;;;17.70;99.90;;;;;;5032422;28;20480;-72
2023/06/10 05:19:55;;;;;;;11.87;9.27;;;17.90;99.90;;;;;;5031403;28;20444;-70
2023/06/10 05:22:41;;;;;;;12.67;8.00;;;17.90;99.90;;;;;;5032175;28;20472;-72
2023/06/10 05:25:27;;;;;;;9.50;8.50;;;18.00;99.90;;;;;;5033669;28;21089;-72
2023/06/10 05:28:12;;;;;;;10.30;8.90;;;18.20;99.90;;;;;;5032806;28;20426;-73
2023/06/10 05:30:59;;;;;;;10.00;8.93;;;18.40;99.90;;;;;;5030203;28;20441;-72
2023/06/10 05:33:45;;;;;;;10.97;8.83;;;18.60;99.90;;;;;;5031249;28;20488;-72
2023/06/10 05:36:31;;;;;;;8.30;7.47;;;18.60;99.90;;;;;;5038057;28;20448;-73
2023/06/10 05:39:16;;;;;;;11.13;8.30;;;18.80;99.90;;;;;;5030762;28;20463;-72
2023/06/10 05:42:02;;;;;;;8.23;7.43;;;19.00;99.90;;;;;;5031142;28;20483;-71
2023/06/10 05:44:48;;;;;;;10.57;8.00;;;19.20;99.00;;;;;;5031913;28;20431;-73
2023/06/10 05:47:35;;;;;;;11.10;7.70;;;19.50;97.60;;;;;;5031831;28;20436;-72
2023/06/10 05:50:20;;;;;;;8.07;6.53;;;19.60;95.60;;;;;;5031760;28;20430;-72
2023/06/10 05:53:08;;;;;;;10.00;7.33;;;19.80;93.60;;;;;;5029538;28;20430;-72
2023/06/10 05:55:57;;;;;;;8.13;6.70;;;20.00;91.30;;;;;;5028935;28;22286;-72
2023/06/10 05:58:42;;;;;;;7.27;6.47;;;20.20;90.00;;;;;;5028719;28;20905;-72
2023/06/10 06:01:27;;;;;;;10.67;7.30;;;20.40;84.20;;;;;;5034221;28;20499;-71
2023/06/10 06:04:14;;;;;;;10.40;7.47;;;20.60;83.90;;;;;;5029813;28;20537;-71
2023/06/10 06:07:00;;;;;;;10.13;6.70;;;20.80;80.00;;;;;;5032440;28;20441;-72
2023/06/10 06:09:45;;;;;;;10.50;5.77;;;20.90;73.90;;;;;;5031407;28;20425;-72
2023/06/10 06:12:31;;;;;;;6.47;5.70;;;21.10;68.00;;;;;;5029596;28;20487;-72
2023/06/10 06:15:17;;;;;;;6.80;5.43;;;21.30;69.50;;;;;;5029901;28;23286;-71
2023/06/10 06:18:02;;;;;;;6.90;6.10;;;21.40;67.60;;;;;;5030249;28;20480;-73
2023/06/10 06:20:50;;;;;;;7.10;5.90;;;21.50;68.90;;;;;;5030706;28;20870;-71
2023/06/10 06:23:36;;;;;;;7.70;5.93;;;21.60;67.00;;;;;;5031604;28;20475;-72
2023/06/10 06:26:21;;;;;;;9.33;7.27;;;21.70;67.90;;;;;;5031486;28;20490;-72
2023/06/10 06:29:07;;;;;;;10.27;7.43;;;21.80;68.10;;;;;;5030321;28;20441;-72
2023/06/10 06:31:52;;;;;;;6.07;5.30;;;21.90;64.50;;;;;;5031789;28;20507;-70
2023/06/10 06:34:38;;;;;;;16.50;6.57;;;22.00;65.00;;;;;;5032629;28;20448;-71
2023/06/10 06:37:26;;;;;;;5.93;5.33;;;22.10;63.80;;;;;;5028300;28;20476;-72
2023/06/10 06:40:12;;;;;;;8.20;5.90;;;22.20;62.50;;;;;;5031299;28;20452;-72
2023/06/10 06:42:58;;;;;;;8.30;6.30;;;22.30;61.50;;;;;;5030877;28;20471;-71
2023/06/10 06:45:43;;;;;;;8.10;6.07;;;22.40;60.70;;;;;;5029660;28;20483;-71
2023/06/10 06:48:29;;;;;;;7.17;6.57;;;22.50;59.70;;;;;;5030729;28;20452;-71
2023/06/10 06:51:15;;;;;;;8.53;6.20;;;22.60;60.20;;;;;;5029529;28;20677;-73
2023/06/10 06:54:01;;;;;;;8.47;6.10;;;22.60;57.30;;;;;;5029610;28;20449;-72
2023/06/10 06:56:47;;;;;;;8.97;6.80;;;22.70;56.20;;;;;;5029591;28;20452;-72
2023/06/10 06:59:32;;;;;;;8.13;6.37;;;22.80;58.90;;;;;;5028645;28;20480;-71
2023/06/10 07:02:18;;;;;;;11.00;9.20;;;22.90;57.70;;;;;;5028498;28;20476;-72
2023/06/10 07:05:05;;;;;;;8.80;7.40;;;22.90;58.70;;;;;;5034967;28;20466;-72
2023/06/10 07:07:54;;;;;;;11.63;6.90;;;23.00;56.50;;;;;;5029170;28;21055;-71
2023/06/10 07:10:41;;;;;;;7.40;6.70;;;23.10;57.20;;;;;;5029805;28;20448;-72
2023/06/10 07:13:26;;;;;;;6.43;5.73;;;23.10;56.60;;;;;;5030718;28;20467;-71
2023/06/10 07:16:12;;;;;;;8.07;5.93;;;23.20;57.10;;;;;;5030031;28;20439;-72
2023/06/10 07:18:57;;;;;;;10.57;6.70;;;23.30;56.80;;;;;;5030730;28;20475;-73
2023/06/10 07:21:43;;;;;;;7.27;6.57;;;23.40;53.20;;;;;;5030337;28;23645;-71
2023/06/10 07:24:29;;;;;;;6.43;5.80;;;23.50;56.30;;;;;;5028849;28;20456;-71
2023/06/10 07:27:15;;;;;;;9.10;6.13;;;23.60;52.10;;;;;;5023306;28;20427;-71
2023/06/10 07:30:01;;;;;;;7.10;6.03;;;23.60;49.30;;;;;;5027925;28;20943;-71
2023/06/10 07:32:47;;;;;;;12.00;6.10;;;23.70;49.90;;;;;;5024730;28;20487;-72
2023/06/10 07:35:32;;;;;;;7.83;6.60;;;23.80;51.80;;;;;;5028789;28;20448;-73
2023/06/10 07:38:18;;;;;;;6.40;5.40;;;23.90;49.20;;;;;;5030636;28;20472;-72
2023/06/10 07:41:04;;;;;;;8.70;6.50;;;23.90;49.50;;;;;;5033445;28;20447;-72
2023/06/10 07:43:54;;;;;;;9.23;6.23;;;24.00;49.20;;;;;;5032053;28;20447;-72
2023/06/10 07:46:39;;;;;;;9.60;5.57;;;24.10;45.70;;;;;;5034473;28;20994;-71
2023/06/10 07:49:25;;;;;;;7.10;6.10;;;24.10;47.50;;;;;;5032109;28;20455;-71
2023/06/10 07:52:10;;;;;;;7.33;6.57;;;24.20;48.00;;;;;;5037116;28;21160;-71
2023/06/10 07:54:56;;;;;;;7.20;6.03;;;24.30;44.20;;;;;;5034652;28;21468;-71
2023/06/10 07:57:42;;;;;;;6.90;6.07;;;24.40;44.30;;;;;;5030700;28;20554;-70
2023/06/10 08:00:29;;;;;;;7.20;6.23;;;24.50;45.70;;;;;;5034364;28;20514;-71
2023/06/10 08:03:14;;;;;;;8.33;6.00;;;24.50;45.90;;;;;;5033643;28;20529;-70
2023/06/10 08:06:00;;;;;;;9.00;7.00;;;24.60;43.30;;;;;;5032998;28;20517;-71
2023/06/10 08:08:45;;;;;;;6.00;5.40;;;24.70;41.50;;;;;;5036368;28;20441;-71
2023/06/10 08:11:31;;;;;;;9.73;5.87;;;24.70;42.80;;;;;;5031171;28;20929;-71
2023/06/10 08:14:17;;;;;;;9.03;6.87;;;24.80;42.30;;;;;;5032364;28;20520;-71
2023/06/10 08:17:05;;;;;;;7.87;6.50;;;24.90;39.10;;;;;;5035737;28;20447;-71
2023/06/10 08:19:51;;;;;;;7.13;5.70;;;25.00;40.70;;;;;;5034807;28;20845;-71
2023/06/10 08:22:37;;;;;;;7.07;6.37;;;25.00;38.80;;;;;;5033963;28;20834;-71
2023/06/10 08:25:22;;;;;;;8.10;6.57;;;25.10;38.90;;;;;;5032219;28;20454;-71
2023/06/10 08:28:07;;;;;;;6.83;6.13;;;25.10;36.20;;;;;;5034390;28;20453;-71
2023/06/10 08:30:53;;;;;;;7.43;5.97;;;25.10;37.50;;;;;;5031794;28;20450;-70
2023/06/10 08:33:42;;;;;;;10.97;6.13;;;25.30;37.00;;;;;;5031551;28;20802;-72
2023/06/10 08:36:27;;;;;;;7.83;6.40;;;25.30;40.00;;;;;;5034741;28;21245;-72
2023/06/10 08:39:13;;;;;;;6.03;5.43;;;25.40;37.30;;;;;;5029765;28;20483;-71
2023/06/10 08:42:10;;;;;;;7.57;5.90;;;25.50;37.50;;;;;;5032912;28;21022;-71
2023/06/10 08:44:56;;;;;;;10.70;5.80;;;25.60;35.20;;;;;;5031109;28;20454;-72
2023/06/10 08:47:46;;;;;;;6.80;6.10;;;25.70;35.60;;;;;;5030387;28;20440;-71
2023/06/10 08:50:34;;;;;;;7.53;6.37;;;25.80;34.20;;;;;;5028076;28;20525;-72
2023/06/10 08:53:20;;;;;;;19.60;6.60;;;25.80;34.80;;;;;;5027313;28;20900;-72
2023/06/10 08:56:06;;;;;;;7.90;6.27;;;25.90;36.20;;;;;;5029604;28;20459;-71
2023/06/10 08:58:52;;;;;;;8.70;6.90;;;25.90;34.40;;;;;;5027735;28;20739;-72
2023/06/10 09:01:39;;;;;;;13.93;7.43;;;26.00;34.00;;;;;;5036403;28;20478;-71
2023/06/10 09:04:25;;;;;;;8.83;6.37;;;26.10;35.90;;;;;;5030672;28;20436;-70
2023/06/10 09:07:14;;;;;;;11.80;7.00;;;26.10;36.40;;;;;;5029976;28;20444;-73
2023/06/10 09:10:02;;;;;;;9.00;6.23;;;26.20;35.10;;;;;;5029683;28;20448;-71
2023/06/10 09:12:48;;;;;;;9.83;6.23;;;26.30;32.90;;;;;;5030861;28;20548;-71
2023/06/10 09:15:33;;;;;;;6.70;6.00;;;26.30;32.10;;;;;;5029249;28;20937;-71
2023/06/10 09:18:19;;;;;;;7.00;6.30;;;26.40;31.60;;;;;;5031039;28;20642;-72
2023/06/10 09:21:04;;;;;;;10.80;6.43;;;26.50;30.00;;;;;;5030675;28;20456;-71
2023/06/10 09:23:52;;;;;;;14.13;6.50;;;26.50;30.90;;;;;;5030462;28;20960;-72
2023/06/10 09:26:37;;;;;;;9.17;7.07;;;26.60;31.80;;;;;;5031820;28;20451;-71
2023/06/10 09:29:23;;;;;;;10.93;6.10;;;26.60;29.50;;;;;;5030473;28;20454;-70
2023/06/10 09:32:09;;;;;;;8.43;6.30;;;26.70;28.10;;;;;;5030037;28;20482;-71
2023/06/10 09:34:54;;;;;;;12.73;6.60;;;26.70;27.80;;;;;;5034444;28;20982;-73
2023/06/10 09:37:40;;;;;;;8.00;7.10;;;26.70;27.30;;;;;;5028848;28;20582;-71
2023/06/10 09:40:27;;;;;;;7.10;5.77;;;26.80;25.10;;;;;;5028324;28;20453;-70
2023/06/10 09:43:13;;;;;;;8.30;6.70;;;26.80;27.60;;;;;;5032517;28;20779;-72
2023/06/10 09:45:58;;;;;;;7.43;6.20;;;26.80;26.60;;;;;;5035150;28;20450;-73
2023/06/10 09:48:46;;;;;;;7.70;5.83;;;26.90;26.70;;;;;;5031844;28;20881;-73
2023/06/10 09:51:33;;;;;;;8.17;5.70;;;26.90;26.20;;;;;;5035659;28;20674;-73
2023/06/10 09:54:19;;;;;;;7.37;5.20;;;27.00;25.60;;;;;;5031967;28;20455;-73
2023/06/10 09:57:09;;;;;;;6.63;4.63;;;27.00;25.90;;;;;;5032547;28;20479;-72
2023/06/10 09:59:56;;;;;;;5.90;5.30;;;27.10;25.90;;;;;;5035115;28;20468;-71
2023/06/10 10:02:47;;;;;;;5.80;5.20;;;27.10;21.90;;;;;;5036434;28;20997;-74
2023/06/10 10:05:32;;;;;;;8.83;4.73;;;27.10;23.30;;;;;;5034576;28;20958;-71
2023/06/10 10:08:18;;;;;;;8.10;6.20;;;27.10;22.50;;;;;;5034300;28;20575;-71
2023/06/10 10:11:04;;;;;;;6.73;5.30;;;27.20;23.40;;;;;;5031528;28;20806;-73
2023/06/10 10:13:52;;;;;;;9.83;5.27;;;27.20;22.40;;;;;;5034251;28;21056;-73
2023/06/10 10:16:40;;;;;;;7.57;5.27;;;27.30;24.40;;;;;;5034261;28;20452;-72
2023/06/10 10:19:30;;;;;;;8.43;5.30;;;27.30;22.80;;;;;;5034514;28;20617;-74
2023/06/10 10:22:20;;;;;;;6.60;5.07;;;27.40;23.30;;;;;;5037394;28;20464;-75
2023/06/10 10:25:11;;;;;;;9.17;5.60;;;27.50;22.10;;;;;;5035612;28;20456;-71
2023/06/10 10:28:00;;;;;;;5.57;4.83;;;27.50;24.70;;;;;;5033285;28;20499;-72
2023/06/10 10:30:51;;;;;;;6.40;5.50;;;27.60;24.60;;;;;;5035374;28;22660;-75
2023/06/10 10:33:46;;;;;;;6.40;5.10;;;27.70;23.10;;;;;;5041653;28;20491;-72
2023/06/10 10:36:33;;;;;;;6.63;5.63;;;27.80;21.90;;;;;;5043345;28;20568;-71
2023/06/10 10:39:19;;;;;;;6.63;5.50;;;27.80;22.00;;;;;;5040487;28;20554;-72
2023/06/10 10:42:09;;;;;;;6.17;5.57;;;27.80;20.80;;;;;;5034774;28;20534;-71
2023/06/10 10:44:54;;;;;;;7.00;5.73;;;27.90;24.00;;;;;;5036815;28;20534;-72
2023/06/10 10:47:43;;;;;;;6.20;5.37;;;27.90;21.40;;;;;;5032151;28;20447;-71
2023/06/10 10:50:31;;;;;;;9.13;5.83;;;28.00;23.50;;;;;;5030789;28;20865;-72
2023/06/10 10:53:21;;;;;;;6.10;5.50;;;28.10;22.20;;;;;;5030562;28;20522;-72
2023/06/10 10:56:07;;;;;;;7.43;5.37;;;28.00;20.90;;;;;;5045200;28;20444;-72
2023/06/10 10:59:04;;;;;;;8.57;4.57;;;28.10;21.10;;;;;;5054500;28;20474;-71
2023/06/10 11:01:51;;;;;;;7.80;4.50;;;28.10;21.40;;;;;;5047885;28;20475;-72
2023/06/10 11:04:37;;;;;;;7.90;4.90;;;28.20;19.50;;;;;;5060454;28;20497;-71
2023/06/10 11:07:25;;;;;;;7.70;4.63;;;28.20;20.50;;;;;;5053290;28;20466;-72
2023/06/10 11:10:13;;;;;;;6.80;5.00;;;28.20;19.30;;;;;;5046136;28;20436;-72
2023/06/10 11:12:59;;;;;;;10.53;4.90;;;28.30;21.10;;;;;;5056942;28;20459;-72
2023/06/10 11:15:46;;;;;;;4.93;4.40;;;28.30;21.10;;;;;;5057009;28;20602;-72
2023/06/10 11:18:39;;;;;;;6.17;4.33;;;28.40;20.20;;;;;;5047255;28;20428;-72
2023/06/10 11:21:26;;;;;;;4.93;4.43;;;28.40;19.40;;;;;;5057072;28;20506;-72
2023/06/10 11:24:15;;;;;;;7.00;4.60;;;28.50;19.30;;;;;;5054648;28;20424;-72
2023/06/10 11:27:17;;;;;;;4.97;4.47;;;28.50;21.20;;;;;;5048856;28;20543;-72
2023/06/10 11:30:20;;;;;;;6.60;5.50;;;28.60;19.50;;;;;;5058016;28;20447;-72
2023/06/10 11:33:05;;;;;;;6.00;5.40;;;28.70;18.40;;;;;;5048186;28;20481;-73
2023/06/10 11:35:51;;;;;;;6.27;4.90;;;28.70;20.10;;;;;;5053875;28;20811;-72
2023/06/10 11:38:38;;;;;;;5.80;5.20;;;28.80;20.50;;;;;;5047113;28;20427;-71
2023/06/10 11:41:25;;;;;;;7.40;4.50;;;28.80;18.10;;;;;;5049194;28;20510;-72
2023/06/10 11:44:11;;;;;;;5.90;5.27;;;28.80;18.70;;;;;;5043228;28;20464;-72
2023/06/10 11:46:57;;;;;;;6.93;5.00;;;28.70;20.10;;;;;;5057480;28;20960;-72
2023/06/10 11:49:43;;;;;;;7.13;5.70;;;28.90;20.90;;;;;;5048900;28;20449;-71
2023/06/10 11:52:29;;;;;;;16.10;5.50;;;28.80;20.80;;;;;;5054958;22;20491;-73
2023/06/10 11:55:16;;;;;;;7.57;5.23;;;28.70;20.10;;;;;;5044497;28;20446;-73
2023/06/10 11:58:01;;;;;;;7.77;4.53;;;28.70;19.70;;;;;;5058206;28;20431;-73
2023/06/10 12:00:48;;;;;;;7.27;4.90;;;28.70;20.30;;;;;;5048830;28;20554;-73
2023/06/10 12:03:37;;;;;;;5.80;4.80;;;28.80;21.40;;;;;;5024149;28;20509;-73
2023/06/10 12:06:23;;;;;;;7.33;5.47;;;28.90;19.60;;;;;;5021174;28;20445;-73
2023/06/10 12:09:15;;;;;;;6.10;4.60;;;28.90;18.90;;;;;;5023452;28;20442;-73
2023/06/10 12:12:03;;;;;;;5.67;4.47;;;28.90;19.70;;;;;;5025231;28;20462;-73
2023/06/10 12:14:54;;;;;;;5.80;4.63;;;29.00;19.80;;;;;;5025480;28;21017;-73
2023/06/10 12:17:40;;;;;;;6.80;4.90;;;29.10;19.70;;;;;;5036048;28;21125;-73
2023/06/10 12:20:27;;;;;;;5.23;4.20;;;29.20;18.90;;;;;;5021933;28;20460;-73
2023/06/10 12:23:14;;;;;;;5.43;4.53;;;29.30;18.00;;;;;;5019773;28;20490;-73
2023/06/10 12:26:01;;;;;;;6.47;3.80;;;29.30;16.40;;;;;;5024143;28;20449;-73
2023/06/10 12:28:51;;;;;;;5.17;4.27;;;29.40;15.30;;;;;;5028488;28;20443;-73
2023/06/10 12:31:53;;;;;;;9.97;5.03;;;29.50;17.10;;;;;;5026220;28;20453;-73
2023/06/10 12:34:40;;;;;;;8.23;4.70;;;29.70;18.10;;;;;;5018156;28;20590;-73
2023/06/10 12:37:25;;;;;;;5.67;4.33;;;29.90;14.60;;;;;;5029253;28;20601;-73
2023/06/10 12:40:11;;;;;;;7.93;4.67;;;30.00;17.00;;;;;;5015463;28;21792;-73
2023/06/10 12:42:57;;;;;;;5.70;3.60;;;30.20;14.80;;;;;;5025469;28;20484;-73
2023/06/10 12:45:44;;;;;;;4.43;3.77;;;30.20;15.00;;;;;;5019581;28;20530;-73
2023/06/10 12:48:30;;;;;;;5.60;4.10;;;30.10;13.60;;;;;;5016723;28;20450;-73
2023/06/10 12:51:16;;;;;;;6.07;4.30;;;30.00;12.60;;;;;;5025845;28;20451;-73
2023/06/10 12:54:01;;;;;;;7.70;3.73;;;29.90;13.30;;;;;;5026872;28;20932;-73
2023/06/10 12:56:47;;;;;;;7.20;4.17;;;30.10;15.40;;;;;;5023173;28;20982;-73
2023/06/10 12:59:33;;;;;;;10.67;4.10;;;30.20;13.90;;;;;;5011132;28;21221;-73
2023/06/10 13:02:20;;;;;;;6.83;4.10;;;30.40;13.70;;;;;;5025605;28;20464;-73
2023/06/10 13:05:06;;;;;;;4.77;4.00;;;30.50;13.80;;;;;;5018961;28;20647;-73
2023/06/10 13:07:51;;;;;;;6.80;4.60;;;30.60;14.10;;;;;;5023611;28;20514;-73
2023/06/10 13:10:38;;;;;;;7.60;4.47;;;30.60;15.60;;;;;;5018409;28;20466;-73
2023/06/10 13:13:24;;;;;;;8.43;6.30;;;30.80;14.40;;;;;;5017466;28;20484;-73
2023/06/10 13:16:09;;;;;;;9.90;4.40;;;31.00;13.40;;;;;;5016194;28;20446;-73
2023/06/10 13:18:57;;;;;;;7.60;4.27;;;31.10;13.10;;;;;;5019464;28;20518;-73
2023/06/10 13:21:42;;;;;;;7.40;4.00;;;31.00;13.00;;;;;;5016314;28;20473;-73
2023/06/10 13:24:28;;;;;;;6.00;4.47;;;31.10;12.70;;;;;;5020472;28;20566;-73
2023/06/10 13:27:14;;;;;;;9.13;4.90;;;30.80;13.00;;;;;;5015701;28;20914;-73
2023/06/10 13:29:59;;;;;;;6.90;4.40;;;30.60;12.70;;;;;;5015054;28;20450;-73
2023/06/10 13:32:45;;;;;;;7.03;4.33;;;30.60;11.90;;;;;;5023028;28;20472;-73
2023/06/10 13:35:32;;;;;;;7.33;3.93;;;30.80;15.70;;;;;;5017186;28;21090;-73
2023/06/10 13:38:17;;;;;;;7.00;4.17;;;30.90;15.30;;;;;;5017630;28;20517;-73
2023/06/10 13:41:03;;;;;;;7.17;6.47;;;30.90;13.50;;;;;;5018952;28;21005;-73
2023/06/10 13:43:48;;;;;;;5.00;4.03;;;30.70;13.90;;;;;;5012934;28;20465;-73
2023/06/10 13:46:34;;;;;;;6.80;4.53;;;30.50;14.60;;;;;;5017353;28;20504;-73
2023/06/10 13:49:20;;;;;;;12.00;4.17;;;30.40;13.70;;;;;;5021840;28;20445;-73
2023/06/10 13:52:08;;;;;;;5.30;3.70;;;30.50;12.20;;;;;;5015015;28;20632;-73
2023/06/10 13:54:54;;;;;;;5.00;3.70;;;30.70;11.30;;;;;;5017335;28;20599;-73
2023/06/10 13:57:39;;;;;;;6.70;4.07;;;30.80;12.40;;;;;;5013175;28;20494;-73
2023/06/10 14:00:27;;;;;;;6.83;4.60;;;31.10;12.60;;;;;;5018632;28;21001;-73
2023/06/10 14:03:12;;;;;;;5.13;4.60;;;31.30;12.30;;;;;;5011154;28;20495;-73
2023/06/10 14:05:58;;;;;;;4.73;4.17;;;31.30;10.30;;;;;;5019771;28;20448;-73
2023/06/10 14:08:45;;;;;;;4.67;3.90;;;31.30;10.10;;;;;;5015324;28;20454;-73
2023/06/10 14:11:31;;;;;;;6.20;4.57;;;31.20;10.90;;;;;;5019497;28;20428;-73
2023/06/10 14:14:17;;;;;;;6.17;4.60;;;31.20;12.00;;;;;;5025172;28;20436;-73
2023/06/10 14:17:03;;;;;;;15.70;4.67;;;31.30;11.00;;;;;;5028705;28;20453;-73
2023/06/10 14:19:48;;;;;;;5.93;4.60;;;31.40;11.00;;;;;;5029568;28;20488;-73
2023/06/10 14:22:34;;;;;;;5.40;4.50;;;31.60;11.10;;;;;;5025629;28;20536;-73